Decoded Metar for KRKS (ROCK SPRINGS in WY, USA) (IATA:RKS) | Meteo·Mobile Aviation Weather
aviador You're here:

KRKS Decoded Metar

ROCK SPRINGS in WY, USA
Report Time2019-02-20 18:54:00
UTC Time2019-02-20 19:59:50
Flight Rules vfr VFR
Wind250° at 20 Gusting to 27 kt
W.Decomp.*RWY 21: 17.8 kt HW 9.1 kt RCW
RWY 27: 16.8 kt HW 10.9 kt LCW
W.Rank250° ranks 1
Current wind is above 250° avg. (12.3)
Visibility9999 m
Phenomena:N/A
Clouds:Few 049 Hf
Broken 070 Hf
Expected CloudBase > 2,000 ft AGL from Temp-Dew spread
Ceiling7,000 ft
Temp-9°C (ISA -11)
Dew Point-14°C (67% RH)
AAT-19.5°C
QNH1002 hPa
Density Alt5,886 ft
Elevation6,759 ft
Report Wrong Elevation
Raw Report
KRKS 201854Z AUTO 25020G27KT 10SM FEW049 BKN070 M09/M14 A2959 RMK
AO2 PK WND 25027/1851 SLP102 T10891139=

Extra information for KRKS:More info

Metar Taf Metar & Taf Last 4 Metars F.Rules Stats Wind Profile Meteogram Temp Stats Airport Information Weather charts Add Link Nearby VenuesMetar ALERT Operation Metar Decoded Social comments

AIRNAV info for KRKS